createdAt,value
2022-10-23T00:02:13.285Z,12.87
2022-10-23T00:04:40.963Z,12.70
2022-10-23T00:07:08.650Z,13.77
2022-10-23T00:09:37.707Z,12.70
2022-10-23T00:12:05.542Z,12.13
2022-10-23T00:14:33.259Z,12.60
2022-10-23T00:17:00.995Z,11.77
2022-10-23T00:19:28.720Z,12.70
2022-10-23T00:21:56.442Z,12.53
2022-10-23T00:24:24.130Z,12.10
2022-10-23T00:26:53.339Z,12.27
2022-10-23T00:29:21.055Z,11.47
2022-10-23T00:31:48.740Z,12.27
2022-10-23T00:34:16.487Z,12.37
2022-10-23T00:36:44.190Z,11.73
2022-10-23T00:39:11.900Z,11.10
2022-10-23T00:41:39.609Z,12.47
2022-10-23T00:44:12.084Z,11.43
2022-10-23T00:46:41.027Z,11.27
2022-10-23T00:49:10.467Z,11.20
2022-10-23T00:51:42.453Z,12.53
2022-10-23T00:54:23.372Z,11.47
2022-10-23T00:56:53.774Z,11.23
2022-10-23T00:59:22.933Z,11.50
2022-10-23T01:01:50.844Z,10.60
2022-10-23T01:04:18.991Z,11.43
2022-10-23T01:06:54.402Z,10.83
2022-10-23T01:09:30.110Z,11.10
2022-10-23T01:12:05.472Z,10.50
2022-10-23T01:14:40.618Z,11.33
2022-10-23T01:17:13.570Z,10.77
2022-10-23T01:19:52.226Z,10.93
2022-10-23T01:22:54.928Z,10.47
2022-10-23T01:25:30.706Z,10.73
2022-10-23T01:28:04.054Z,10.10
2022-10-23T01:30:34.739Z,10.90
2022-10-23T01:33:07.086Z,10.17
2022-10-23T01:35:38.174Z,10.57
2022-10-23T01:38:13.430Z,11.73
2022-10-23T01:40:48.248Z,11.30
2022-10-23T01:43:22.102Z,12.00
2022-10-23T01:45:54.123Z,12.17
2022-10-23T01:48:26.999Z,11.97
2022-10-23T01:50:57.584Z,11.63
2022-10-23T01:53:30.631Z,12.13
2022-10-23T01:56:00.136Z,11.97
2022-10-23T01:58:31.802Z,12.57
2022-10-23T02:01:04.226Z,12.23
2022-10-23T02:03:33.809Z,13.00
2022-10-23T02:06:01.573Z,12.27
2022-10-23T02:08:29.568Z,12.20
2022-10-23T02:11:05.891Z,12.13
2022-10-23T02:13:40.068Z,12.47
2022-10-23T02:16:17.582Z,12.27
2022-10-23T02:18:52.921Z,11.83
2022-10-23T02:21:30.555Z,12.80
2022-10-23T02:24:04.170Z,12.57
2022-10-23T02:26:39.474Z,12.67
2022-10-23T02:29:11.964Z,13.07
2022-10-23T02:31:39.801Z,13.13
2022-10-23T02:34:07.718Z,11.93
2022-10-23T02:36:35.501Z,13.50
2022-10-23T02:39:03.210Z,13.13
2022-10-23T02:41:40.405Z,13.53
2022-10-23T02:44:26.016Z,12.67
2022-10-23T02:47:01.648Z,13.83
2022-10-23T02:49:36.252Z,13.20
2022-10-23T02:52:10.037Z,13.87
2022-10-23T02:54:49.321Z,14.23
2022-10-23T02:57:24.552Z,13.93
2022-10-23T03:00:02.798Z,13.37
2022-10-23T03:02:36.595Z,13.37
2022-10-23T03:05:07.846Z,14.37
2022-10-23T03:07:36.081Z,13.30
2022-10-23T03:10:04.055Z,13.77
2022-10-23T03:12:31.759Z,13.87
2022-10-23T03:15:00.848Z,13.57
2022-10-23T03:17:28.600Z,14.03
2022-10-23T03:19:56.309Z,12.90
2022-10-23T03:22:24.029Z,14.00
2022-10-23T03:24:51.743Z,13.23
2022-10-23T03:27:19.514Z,14.97
2022-10-23T03:29:47.234Z,15.07
2022-10-23T03:32:16.286Z,14.23
2022-10-23T03:34:44.132Z,15.53
2022-10-23T03:37:11.916Z,15.80
2022-10-23T03:39:39.634Z,15.07
2022-10-23T03:42:07.429Z,17.07
2022-10-23T03:44:35.244Z,17.27
2022-10-23T03:47:02.957Z,17.07
2022-10-23T03:49:32.097Z,16.87
2022-10-23T03:51:59.781Z,18.33
2022-10-23T03:54:29.770Z,17.93
2022-10-23T03:56:57.980Z,19.30
2022-10-23T03:59:25.826Z,18.20
2022-10-23T04:01:53.671Z,19.77
2022-10-23T04:04:21.468Z,18.77
2022-10-23T04:06:50.505Z,19.70
2022-10-23T04:09:18.540Z,19.47
2022-10-23T04:11:46.209Z,19.43
2022-10-23T04:14:14.865Z,19.30
2022-10-23T04:16:42.757Z,19.60
2022-10-23T04:19:10.507Z,19.63
2022-10-23T04:21:38.315Z,19.70
2022-10-23T04:24:08.138Z,20.27
2022-10-23T04:26:35.935Z,19.83
2022-10-23T04:29:03.614Z,20.63
2022-10-23T04:31:31.298Z,19.87
2022-10-23T04:33:59.042Z,19.60
2022-10-23T04:36:26.892Z,23.90
2022-10-23T04:38:54.610Z,26.90
2022-10-23T04:41:23.893Z,26.37
2022-10-23T04:43:51.551Z,26.10
2022-10-23T04:46:19.656Z,28.03
2022-10-23T04:48:47.549Z,23.47
2022-10-23T04:51:15.803Z,24.13
2022-10-23T04:53:43.612Z,22.33
2022-10-23T04:56:14.976Z,19.80
2022-10-23T04:58:44.193Z,22.40
2022-10-23T05:01:12.482Z,25.00
2022-10-23T05:03:40.514Z,20.37
2022-10-23T05:06:08.451Z,20.93
2022-10-23T05:08:36.823Z,20.07
2022-10-23T05:11:04.713Z,19.90
2022-10-23T05:13:32.404Z,22.17
2022-10-23T05:16:01.456Z,19.53
2022-10-23T05:18:33.602Z,21.93
2022-10-23T05:21:06.488Z,21.10
2022-10-23T05:23:37.665Z,21.07
2022-10-23T05:26:06.136Z,24.20
2022-10-23T05:28:33.845Z,20.23
2022-10-23T05:31:06.348Z,19.70
2022-10-23T05:33:35.873Z,18.33
2022-10-23T05:36:04.921Z,19.03
2022-10-23T05:38:35.264Z,17.17
2022-10-23T05:41:03.254Z,21.10
2022-10-23T05:43:31.481Z,19.33
2022-10-23T05:45:59.819Z,19.93
2022-10-23T05:48:34.792Z,19.80
2022-10-23T05:51:06.954Z,19.20
2022-10-23T05:53:36.254Z,21.00
2022-10-23T05:56:07.623Z,20.73
2022-10-23T05:58:35.688Z,19.67
2022-10-23T06:01:07.156Z,19.67
2022-10-23T06:03:36.481Z,17.63
2022-10-23T06:06:04.318Z,21.13
2022-10-23T06:08:32.766Z,22.57
2022-10-23T06:11:06.711Z,18.20
2022-10-23T06:13:34.389Z,17.80
2022-10-23T06:16:09.925Z,17.30
2022-10-23T06:18:39.143Z,17.80
2022-10-23T06:21:07.255Z,17.00
2022-10-23T06:23:36.132Z,15.63
2022-10-23T06:26:04.743Z,18.97
2022-10-23T06:28:32.432Z,18.40
2022-10-23T06:31:00.154Z,16.37
2022-10-23T06:33:27.861Z,15.93
2022-10-23T06:35:58.322Z,18.47
2022-10-23T06:38:26.488Z,23.30
2022-10-23T06:40:54.467Z,19.37
2022-10-23T06:43:22.198Z,16.67
2022-10-23T06:45:50.144Z,17.03
2022-10-23T06:48:17.812Z,16.17
2022-10-23T06:50:45.499Z,15.23
2022-10-23T06:53:14.584Z,15.00
2022-10-23T06:55:42.286Z,16.67
2022-10-23T06:58:10.767Z,15.77
2022-10-23T07:00:39.346Z,15.40
2022-10-23T07:03:08.553Z,14.87
2022-10-23T07:05:36.253Z,13.47
2022-10-23T07:08:05.851Z,15.03
2022-10-23T07:10:35.502Z,13.87
2022-10-23T07:13:03.314Z,14.30
2022-10-23T07:15:31.234Z,14.50
2022-10-23T07:17:58.958Z,17.77
2022-10-23T07:20:26.761Z,14.77
2022-10-23T07:22:55.665Z,13.73
2022-10-23T07:25:24.464Z,16.30
2022-10-23T07:27:55.334Z,14.87
2022-10-23T07:30:24.247Z,14.33
2022-10-23T07:32:52.338Z,14.73
2022-10-23T07:35:20.242Z,14.43
2022-10-23T07:37:48.598Z,16.70
2022-10-23T07:40:17.260Z,16.03
2022-10-23T07:42:44.996Z,14.30
2022-10-23T07:45:14.221Z,16.13
2022-10-23T07:47:42.162Z,17.43
2022-10-23T07:50:10.762Z,16.27
2022-10-23T07:52:38.442Z,17.07
2022-10-23T07:55:06.766Z,17.30
2022-10-23T07:57:34.444Z,16.77
2022-10-23T08:00:02.172Z,16.97
2022-10-23T08:02:31.240Z,15.67
2022-10-23T08:04:59.365Z,14.13
2022-10-23T08:07:27.025Z,16.30
2022-10-23T08:09:54.741Z,15.17
2022-10-23T08:12:22.422Z,16.93
2022-10-23T08:14:50.144Z,18.23
2022-10-23T08:17:17.850Z,15.47
2022-10-23T08:19:48.433Z,17.40
2022-10-23T08:22:16.387Z,16.03
2022-10-23T08:24:44.238Z,16.50
2022-10-23T08:27:11.963Z,18.07
2022-10-23T08:29:39.658Z,16.30
2022-10-23T08:32:07.417Z,15.87
2022-10-23T08:34:37.797Z,15.57
2022-10-23T08:37:06.858Z,14.63
2022-10-23T08:39:34.573Z,14.30
2022-10-23T08:42:02.459Z,15.10
2022-10-23T08:44:34.476Z,14.40
2022-10-23T08:47:06.485Z,16.67
2022-10-23T08:49:41.044Z,14.67
2022-10-23T08:52:16.541Z,15.73
2022-10-23T08:54:57.378Z,14.63
2022-10-23T08:57:33.362Z,18.23
2022-10-23T09:00:02.925Z,17.93
2022-10-23T09:02:36.805Z,17.97
2022-10-23T09:05:04.840Z,18.43
2022-10-23T09:07:43.930Z,17.47
2022-10-23T09:10:27.281Z,17.23
2022-10-23T09:12:58.865Z,16.97
2022-10-23T09:15:31.529Z,20.23
2022-10-23T09:18:02.044Z,18.80
2022-10-23T09:20:34.323Z,19.17
2022-10-23T09:23:09.375Z,19.97
2022-10-23T09:25:40.062Z,20.77
2022-10-23T09:28:08.217Z,19.97
2022-10-23T09:30:38.422Z,21.10
2022-10-23T09:33:16.179Z,22.33
2022-10-23T09:35:55.303Z,22.17
2022-10-23T09:38:32.933Z,21.97
2022-10-23T09:41:04.126Z,24.30
2022-10-23T09:43:31.839Z,24.10
2022-10-23T09:46:01.534Z,24.27
2022-10-23T09:48:29.633Z,22.10
2022-10-23T09:50:59.136Z,22.70
2022-10-23T09:53:34.094Z,22.03
2022-10-23T09:56:04.802Z,20.80
2022-10-23T09:58:38.174Z,22.10
2022-10-23T10:01:06.262Z,19.50
2022-10-23T10:03:34.175Z,21.40
2022-10-23T10:06:03.791Z,21.10
2022-10-23T10:08:41.656Z,19.67
2022-10-23T10:11:16.239Z,19.00
2022-10-23T10:14:06.399Z,19.27
2022-10-23T10:16:43.750Z,18.83
2022-10-23T10:19:20.167Z,16.90
2022-10-23T10:21:54.582Z,17.20
2022-10-23T10:24:32.108Z,16.57
2022-10-23T10:27:08.471Z,19.00
2022-10-23T10:29:46.832Z,17.00
2022-10-23T10:32:32.200Z,16.13
2022-10-23T10:35:11.234Z,16.90
2022-10-23T10:37:51.906Z,18.67
2022-10-23T10:40:27.077Z,18.07
2022-10-23T10:43:15.039Z,17.90
2022-10-23T10:45:47.925Z,16.43
2022-10-23T10:48:26.536Z,16.37
2022-10-23T10:50:58.761Z,16.03
2022-10-23T10:53:32.345Z,16.50
2022-10-23T10:56:04.959Z,16.40
2022-10-23T10:58:39.660Z,15.47
2022-10-23T11:01:15.338Z,16.43
2022-10-23T11:03:51.875Z,16.43
2022-10-23T11:06:24.102Z,14.60
2022-10-23T11:08:58.133Z,14.43
2022-10-23T11:11:37.103Z,13.63
2022-10-23T11:14:05.085Z,13.70
2022-10-23T11:16:36.619Z,13.07
2022-10-23T11:19:11.525Z,12.40
2022-10-23T11:21:45.335Z,12.10
2022-10-23T11:24:40.756Z,12.70
2022-10-23T11:27:29.175Z,12.43
2022-10-23T11:30:22.829Z,11.07
2022-10-23T11:33:09.183Z,11.23
2022-10-23T11:35:53.230Z,10.93
2022-10-23T11:38:27.300Z,10.17
2022-10-23T11:40:58.568Z,11.00
2022-10-23T11:43:33.501Z,10.70
2022-10-23T11:46:13.473Z,11.53
2022-10-23T11:48:42.501Z,12.60
2022-10-23T11:51:29.182Z,12.90
2022-10-23T11:54:08.032Z,11.53
2022-10-23T11:56:35.878Z,11.20
2022-10-23T11:59:24.342Z,10.37
2022-10-23T12:01:54.971Z,9.40
2022-10-23T12:04:27.440Z,10.10
2022-10-23T12:06:57.836Z,9.97
2022-10-23T12:09:29.881Z,9.53
2022-10-23T12:12:17.884Z,8.83
2022-10-23T12:14:49.312Z,8.13
2022-10-23T12:17:35.802Z,8.10
2022-10-23T12:20:20.302Z,39.90
2022-10-23T12:22:59.802Z,10.20
2022-10-23T12:25:37.647Z,7.73
2022-10-23T12:28:13.697Z,6.63
2022-10-23T12:30:48.381Z,5.40
2022-10-23T12:33:23.863Z,5.47
2022-10-23T12:36:41.788Z,4.80
2022-10-23T12:39:31.296Z,5.00
2022-10-23T12:42:00.440Z,4.93
2022-10-23T12:44:28.965Z,4.37
2022-10-23T12:47:00.371Z,4.10
2022-10-23T12:49:31.533Z,4.67
2022-10-23T12:52:01.190Z,4.10
2022-10-23T12:54:32.063Z,4.63
2022-10-23T12:57:00.291Z,4.20
2022-10-23T12:59:33.434Z,3.87
2022-10-23T13:02:02.621Z,4.07
2022-10-23T13:04:32.347Z,4.23
2022-10-23T13:07:02.581Z,4.37
2022-10-23T13:09:32.883Z,4.77
2022-10-23T13:12:03.382Z,4.53
2022-10-23T13:14:34.036Z,4.43
2022-10-23T13:17:04.944Z,4.40
2022-10-23T13:19:33.082Z,4.37
2022-10-23T13:22:02.052Z,4.07
2022-10-23T13:24:31.228Z,3.90
2022-10-23T13:26:59.674Z,3.90
2022-10-23T13:29:30.093Z,4.87
2022-10-23T13:31:58.301Z,4.43
2022-10-23T13:34:29.366Z,4.47
2022-10-23T13:37:01.119Z,3.90
2022-10-23T13:39:31.422Z,4.07
2022-10-23T13:42:10.883Z,3.70
2022-10-23T13:44:38.723Z,3.53
2022-10-23T13:47:07.183Z,4.10
2022-10-23T13:49:36.908Z,4.87
2022-10-23T13:52:05.305Z,4.33
2022-10-23T13:54:33.321Z,4.33
2022-10-23T13:57:01.876Z,4.40
2022-10-23T13:59:30.363Z,3.97
2022-10-23T14:01:59.322Z,4.23
2022-10-23T14:04:27.383Z,3.80
2022-10-23T14:06:58.552Z,3.87
2022-10-23T14:09:26.397Z,4.17
2022-10-23T14:11:54.117Z,4.40
2022-10-23T14:14:21.835Z,3.90
2022-10-23T14:16:49.515Z,4.03
2022-10-23T14:19:17.218Z,3.90
2022-10-23T14:21:44.967Z,3.83
2022-10-23T14:24:14.728Z,4.23
2022-10-23T14:26:43.181Z,3.97
2022-10-23T14:29:18.393Z,4.37
2022-10-23T14:31:49.187Z,4.70
2022-10-23T14:34:16.959Z,4.83
2022-10-23T14:36:50.359Z,4.33
2022-10-23T14:39:20.122Z,4.80
2022-10-23T14:41:48.116Z,5.23
2022-10-23T14:44:15.933Z,4.97
2022-10-23T14:46:43.671Z,4.63
2022-10-23T14:49:11.316Z,4.70
2022-10-23T14:51:38.981Z,4.70
2022-10-23T14:54:09.130Z,4.27
2022-10-23T14:56:40.772Z,5.00
2022-10-23T14:59:10.657Z,5.23
2022-10-23T15:01:43.746Z,5.03
2022-10-23T15:04:15.702Z,5.10
2022-10-23T15:06:44.176Z,5.93
2022-10-23T15:09:12.332Z,4.83
2022-10-23T15:11:41.527Z,5.70
2022-10-23T15:14:09.330Z,5.50
2022-10-23T15:16:41.162Z,5.47
2022-10-23T15:19:13.488Z,6.17
2022-10-23T15:21:45.139Z,6.00
2022-10-23T15:24:12.918Z,6.10
2022-10-23T15:26:43.252Z,5.77
2022-10-23T15:29:12.218Z,7.00
2022-10-23T15:31:49.019Z,6.90
2022-10-23T15:34:19.099Z,6.70
2022-10-23T15:36:47.936Z,7.37
2022-10-23T15:39:19.168Z,6.90
2022-10-23T15:41:52.510Z,7.30
2022-10-23T15:44:22.150Z,8.87
2022-10-23T15:46:50.317Z,7.13
2022-10-23T15:49:18.621Z,7.50
2022-10-23T15:51:46.612Z,23.00
2022-10-23T15:54:18.394Z,8.80
2022-10-23T15:56:46.821Z,7.83
2022-10-23T15:59:16.214Z,7.33
2022-10-23T16:01:44.765Z,7.60
2022-10-23T16:04:12.656Z,6.90
2022-10-23T16:06:40.693Z,12.57
2022-10-23T16:09:08.460Z,7.50
2022-10-23T16:11:38.499Z,7.33
2022-10-23T16:14:08.289Z,7.63
2022-10-23T16:16:37.509Z,7.40
2022-10-23T16:19:06.139Z,7.70
2022-10-23T16:21:35.948Z,7.60
2022-10-23T16:24:05.638Z,6.77
2022-10-23T16:26:33.531Z,7.47
2022-10-23T16:29:03.474Z,7.20
2022-10-23T16:31:31.269Z,6.87
2022-10-23T16:34:01.799Z,7.40
2022-10-23T16:36:30.403Z,7.57
2022-10-23T16:38:58.111Z,8.33
2022-10-23T16:41:25.867Z,7.23
2022-10-23T16:43:53.718Z,6.17
2022-10-23T16:46:23.248Z,7.17
2022-10-23T16:48:52.277Z,7.50
2022-10-23T16:51:23.601Z,7.13
2022-10-23T16:53:51.728Z,6.83
2022-10-23T16:56:23.535Z,22.50
2022-10-23T16:58:51.625Z,24.40
2022-10-23T17:01:26.065Z,8.47
2022-10-23T17:03:55.310Z,6.90
2022-10-23T17:06:25.787Z,7.10
2022-10-23T17:08:54.367Z,7.03
2022-10-23T17:11:24.185Z,8.30
2022-10-23T17:13:57.225Z,7.87
2022-10-23T17:16:28.830Z,7.63
2022-10-23T17:18:57.390Z,6.93
2022-10-23T17:21:26.533Z,7.17
2022-10-23T17:23:54.486Z,7.53
2022-10-23T17:26:23.532Z,6.87
2022-10-23T17:28:51.301Z,6.80
2022-10-23T17:31:22.274Z,7.30
2022-10-23T17:33:51.973Z,7.30
2022-10-23T17:36:21.579Z,7.90
2022-10-23T17:38:50.937Z,7.63
2022-10-23T17:41:21.156Z,7.50
2022-10-23T17:43:49.085Z,7.80
2022-10-23T17:46:18.649Z,8.80
2022-10-23T17:48:46.417Z,7.57
2022-10-23T17:51:16.594Z,8.20
2022-10-23T17:53:46.750Z,8.13
2022-10-23T17:56:20.040Z,8.40
2022-10-23T17:58:47.868Z,8.50
2022-10-23T18:01:18.251Z,7.80
2022-10-23T18:03:46.111Z,8.10
2022-10-23T18:06:16.991Z,7.60
2022-10-23T18:08:45.656Z,7.43
2022-10-23T18:11:17.414Z,8.20
2022-10-23T18:13:45.334Z,8.17
2022-10-23T18:16:14.098Z,7.87
2022-10-23T18:18:43.640Z,8.10
2022-10-23T18:21:11.754Z,7.83
2022-10-23T18:23:39.512Z,7.33
2022-10-23T18:26:07.993Z,7.53
2022-10-23T18:28:37.113Z,7.33
2022-10-23T18:31:09.023Z,9.97
2022-10-23T18:33:36.710Z,8.63
2022-10-23T18:36:04.937Z,7.73
2022-10-23T18:38:32.613Z,7.20
2022-10-23T18:41:00.290Z,7.37
2022-10-23T18:43:42.502Z,7.77
2022-10-23T18:46:12.886Z,7.37
2022-10-23T18:48:40.988Z,7.47
2022-10-23T18:51:15.766Z,8.40
2022-10-23T18:53:46.563Z,7.87
2022-10-23T18:56:15.057Z,8.53
2022-10-23T18:58:43.342Z,7.30
2022-10-23T19:01:12.493Z,8.30
2022-10-23T19:03:40.287Z,7.60
2022-10-23T19:06:08.642Z,7.70
2022-10-23T19:08:37.793Z,7.73
2022-10-23T19:11:06.510Z,8.67
2022-10-23T19:13:38.957Z,7.77
2022-10-23T19:16:09.873Z,7.63
2022-10-23T19:18:40.647Z,7.77
2022-10-23T19:21:08.672Z,7.53
2022-10-23T19:23:37.312Z,7.53
2022-10-23T19:26:08.687Z,7.47
2022-10-23T19:28:38.024Z,7.87
2022-10-23T19:31:07.585Z,7.97
2022-10-23T19:33:36.142Z,7.40
2022-10-23T19:36:08.825Z,7.63
2022-10-23T19:38:40.271Z,7.57
2022-10-23T19:41:08.370Z,7.13
2022-10-23T19:43:37.652Z,6.90
2022-10-23T19:46:09.487Z,7.23
2022-10-23T19:48:42.440Z,7.70
2022-10-23T19:51:12.850Z,7.00
2022-10-23T19:53:41.943Z,8.03
2022-10-23T19:56:11.620Z,7.53
2022-10-23T19:58:39.838Z,6.97
2022-10-23T20:01:09.293Z,6.27
2022-10-23T20:03:37.073Z,7.73
2022-10-23T20:06:05.179Z,7.17
2022-10-23T20:08:35.169Z,7.43
2022-10-23T20:11:03.135Z,7.47
2022-10-23T20:13:30.959Z,7.20
2022-10-23T20:15:58.682Z,7.63
2022-10-23T20:18:27.396Z,7.00
2022-10-23T20:20:55.246Z,7.10
2022-10-23T20:23:22.965Z,6.97
2022-10-23T20:25:52.021Z,6.60
2022-10-23T20:28:21.681Z,7.33
2022-10-23T20:30:49.411Z,7.07
2022-10-23T20:33:17.114Z,6.37
2022-10-23T20:35:44.942Z,7.30
2022-10-23T20:38:12.687Z,7.30
2022-10-23T20:40:40.398Z,6.80
2022-10-23T20:43:09.475Z,6.10
2022-10-23T20:45:37.566Z,6.63
2022-10-23T20:48:06.150Z,7.40
2022-10-23T20:50:35.664Z,6.57
2022-10-23T20:53:03.692Z,6.40
2022-10-23T20:55:31.448Z,6.53
2022-10-23T20:57:59.365Z,6.50
2022-10-23T21:00:28.414Z,6.43
2022-10-23T21:03:01.722Z,6.90
2022-10-23T21:05:29.771Z,6.67
2022-10-23T21:07:57.469Z,6.47
2022-10-23T21:10:25.317Z,6.77
2022-10-23T21:12:53.045Z,7.13
2022-10-23T21:15:21.054Z,6.70
2022-10-23T21:17:52.252Z,7.63
2022-10-23T21:20:20.133Z,7.90
2022-10-23T21:22:47.878Z,7.07
2022-10-23T21:25:18.568Z,6.73
2022-10-23T21:27:46.607Z,6.77
2022-10-23T21:30:14.756Z,6.93
2022-10-23T21:32:42.446Z,6.20
2022-10-23T21:35:12.027Z,6.77
2022-10-23T21:37:39.716Z,6.33
2022-10-23T21:40:09.149Z,5.93
2022-10-23T21:42:36.844Z,6.13
2022-10-23T21:45:05.095Z,5.73
2022-10-23T21:47:34.798Z,5.73
2022-10-23T21:50:02.511Z,6.23
2022-10-23T21:52:31.859Z,5.40
2022-10-23T21:54:59.579Z,5.83
2022-10-23T21:57:30.992Z,6.37
2022-10-23T21:59:58.694Z,5.23
2022-10-23T22:02:26.633Z,5.63
2022-10-23T22:04:54.486Z,5.50
2022-10-23T22:07:22.229Z,5.60
2022-10-23T22:09:51.384Z,6.33
2022-10-23T22:12:19.073Z,5.57
2022-10-23T22:14:46.944Z,6.10
2022-10-23T22:17:14.638Z,5.37
2022-10-23T22:19:42.476Z,5.50
2022-10-23T22:22:10.242Z,5.20
2022-10-23T22:24:38.176Z,5.50
2022-10-23T22:27:07.298Z,5.13
2022-10-23T22:29:35.054Z,5.60
2022-10-23T22:32:02.736Z,5.40
2022-10-23T22:34:52.043Z,5.40
2022-10-23T22:37:19.212Z,5.00
2022-10-23T22:39:47.108Z,5.27
2022-10-23T22:42:16.175Z,5.13
2022-10-23T22:44:43.914Z,5.87
2022-10-23T22:47:11.676Z,4.83
2022-10-23T22:49:39.424Z,5.23
2022-10-23T22:52:07.155Z,4.80
2022-10-23T22:54:35.033Z,5.17
2022-10-23T22:57:02.744Z,4.90
2022-10-23T22:59:31.789Z,4.80
2022-10-23T23:01:59.510Z,5.10
2022-10-23T23:04:43.109Z,5.17
2022-10-23T23:07:13.353Z,4.90
2022-10-23T23:09:42.896Z,5.07
2022-10-23T23:12:12.374Z,5.07
2022-10-23T23:14:42.294Z,4.57
2022-10-23T23:17:10.270Z,4.63
2022-10-23T23:19:38.090Z,5.20
2022-10-23T23:22:06.288Z,4.77
2022-10-23T23:24:34.272Z,4.20
2022-10-23T23:27:02.100Z,4.07
2022-10-23T23:29:29.862Z,4.03
2022-10-23T23:31:59.029Z,4.20
2022-10-23T23:34:27.235Z,4.20
2022-10-23T23:36:54.959Z,4.47
2022-10-23T23:39:22.672Z,4.30
2022-10-23T23:41:50.409Z,4.80
2022-10-23T23:44:18.115Z,4.30
2022-10-23T23:46:45.820Z,4.10
2022-10-23T23:49:14.958Z,3.80
2022-10-23T23:51:42.683Z,3.93
2022-10-23T23:54:10.382Z,4.20
2022-10-23T23:56:38.108Z,4.70
2022-10-23T23:59:05.809Z,4.70
